Time;durP1;ratioP1;P1;durP2;ratioP2;P2;SDS_P1;SDS_P2;PMS_P1;PMS_P2;Temp;Humidity;BMP_temperature;BMP_pressure;BME280_temperature;BME280_humidity;BME280_pressure;Samples;Min_cycle;Max_cycle;Signal;HPM_P1;HPM_P2
2021/11/15 00:00:12;;;;;;;11.67;5.40;;;;;;;9.07;99.63;96680.13;5018562;28;20226;-69
2021/11/15 00:02:40;;;;;;;8.73;4.77;;;;;;;8.94;99.61;96682.38;5018609;28;20231;-70
2021/11/15 00:05:08;;;;;;;9.27;4.57;;;;;;;8.78;99.01;96677.84;5018527;28;21286;-69
2021/11/15 00:07:34;;;;;;;12.27;4.33;;;;;;;8.71;99.06;96676.00;5017079;28;20209;-70
2021/11/15 00:10:01;;;;;;;9.73;4.20;;;;;;;8.73;98.65;96674.84;5016925;28;20226;-70
2021/11/15 00:12:28;;;;;;;10.60;4.43;;;;;;;8.98;98.21;96667.94;5017949;28;20222;-70
2021/11/15 00:14:55;;;;;;;15.27;5.03;;;;;;;8.74;97.54;96680.94;5019113;28;20213;-70
2021/11/15 00:17:21;;;;;;;9.23;5.10;;;;;;;8.84;97.77;96677.19;5016459;28;20206;-70
2021/11/15 00:19:49;;;;;;;11.17;4.47;;;;;;;8.70;98.90;96674.34;5017313;28;20230;-70
2021/11/15 00:22:16;;;;;;;12.87;5.33;;;;;;;8.66;98.31;96675.63;5018730;28;20205;-70
2021/11/15 00:24:42;;;;;;;9.30;3.70;;;;;;;8.48;97.58;96673.03;5018614;28;20217;-70
2021/11/15 00:27:09;;;;;;;11.37;4.80;;;;;;;8.53;97.05;96676.03;5017966;28;20210;-70
2021/11/15 00:29:36;;;;;;;16.83;6.47;;;;;;;8.41;97.32;96673.00;5019369;28;20252;-69
2021/11/15 00:32:02;;;;;;;11.13;4.87;;;;;;;8.33;97.47;96676.38;5017542;28;20222;-69
2021/11/15 00:34:29;;;;;;;13.50;5.37;;;;;;;8.35;96.37;96678.84;5018290;28;21073;-70
2021/11/15 00:36:56;;;;;;;18.40;6.97;;;;;;;8.51;96.95;96675.38;5018222;28;20205;-70
2021/11/15 00:39:23;;;;;;;7.40;4.03;;;;;;;8.09;97.78;96675.31;5018610;28;20660;-70
2021/11/15 00:41:49;;;;;;;10.03;4.93;;;;;;;8.32;97.04;96668.66;5017965;28;20206;-70
2021/11/15 00:44:16;;;;;;;9.40;4.47;;;;;;;8.31;97.63;96669.63;5016471;28;20198;-70
2021/11/15 00:46:42;;;;;;;13.23;3.83;;;;;;;8.27;96.52;96687.47;5015819;28;20210;-70
2021/11/15 00:49:09;;;;;;;11.43;4.60;;;;;;;8.04;97.53;96686.28;5017323;28;20222;-70
2021/11/15 00:51:35;;;;;;;10.77;4.67;;;;;;;8.13;96.90;96684.53;5016280;28;20226;-70
2021/11/15 00:54:03;;;;;;;22.53;6.03;;;;;;;8.27;97.11;96687.47;5016969;28;20240;-70
2021/11/15 00:56:30;;;;;;;11.90;3.97;;;;;;;8.06;97.54;96683.50;5015053;28;20209;-70
2021/11/15 00:58:57;;;;;;;7.53;4.47;;;;;;;8.18;97.59;96682.31;5016429;28;20222;-70
2021/11/15 01:01:24;;;;;;;8.03;3.97;;;;;;;8.29;97.03;96684.72;5017219;28;20292;-70
2021/11/15 01:03:50;;;;;;;10.87;5.30;;;;;;;8.05;96.95;96689.72;5016846;28;20202;-70
2021/11/15 01:06:17;;;;;;;8.90;3.63;;;;;;;8.04;96.71;96685.44;5015816;28;20213;-70
2021/11/15 01:08:44;;;;;;;8.00;4.37;;;;;;;8.18;97.06;96684.94;5015965;28;20228;-70
2021/11/15 01:11:12;;;;;;;12.03;5.40;;;;;;;8.37;97.02;96687.41;5016733;28;20209;-70
2021/11/15 01:13:39;;;;;;;8.47;4.07;;;;;;;8.24;96.60;96689.59;5015457;28;20232;-70
2021/11/15 01:16:07;;;;;;;13.33;4.60;;;;;;;8.31;95.96;96680.13;5015490;28;20206;-70
2021/11/15 01:18:35;;;;;;;19.63;5.30;;;;;;;8.23;96.95;96688.75;5016927;28;20230;-70
2021/11/15 01:21:02;;;;;;;9.57;4.27;;;;;;;8.12;97.87;96690.75;5018711;28;20209;-70
2021/11/15 01:23:28;;;;;;;12.90;4.23;;;;;;;8.21;97.21;96689.88;5017769;28;20212;-70
2021/11/15 01:25:55;;;;;;;11.70;4.63;;;;;;;8.04;98.11;96685.44;5014571;28;20655;-70
2021/11/15 01:28:23;;;;;;;11.33;5.90;;;;;;;8.49;97.04;96682.56;5017241;28;20206;-70
2021/11/15 01:30:49;;;;;;;12.33;5.67;;;;;;;8.01;97.68;96691.81;5017782;28;20201;-70
2021/11/15 01:33:15;;;;;;;9.03;4.27;;;;;;;7.86;98.93;96692.50;5018764;28;20233;-70
2021/11/15 01:35:42;;;;;;;10.20;3.60;;;;;;;7.90;99.45;96689.44;5017453;28;20210;-70
2021/11/15 01:38:09;;;;;;;6.57;4.57;;;;;;;7.99;98.27;96687.69;5017678;28;20198;-70
2021/11/15 01:40:35;;;;;;;8.17;4.17;;;;;;;8.17;97.63;96676.25;5017633;28;20725;-70
2021/11/15 01:43:03;;;;;;;7.93;2.93;;;;;;;8.32;97.39;96676.53;5016846;28;20209;-70
2021/11/15 01:45:33;;;;;;;6.13;3.43;;;;;;;8.54;97.08;96676.84;5016785;28;20205;-70
2021/11/15 01:48:02;;;;;;;9.23;4.00;;;;;;;8.09;99.03;96680.56;5018284;28;20210;-70
2021/11/15 01:50:29;;;;;;;11.80;4.30;;;;;;;8.01;97.77;96683.94;5017626;28;20225;-70
2021/11/15 01:52:56;;;;;;;5.30;3.20;;;;;;;7.91;98.22;96675.31;5017509;28;20225;-70
2021/11/15 01:55:25;;;;;;;10.03;5.13;;;;;;;8.14;98.98;96681.78;5017900;28;21046;-70
2021/11/15 01:57:52;;;;;;;8.10;3.13;;;;;;;7.92;99.18;96686.66;5017820;28;20698;-70
2021/11/15 02:00:22;;;;;;;6.43;3.17;;;;;;;8.15;98.92;96682.63;5016037;28;20232;-70
2021/11/15 02:02:50;;;;;;;14.33;5.60;;;;;;;7.98;98.70;96683.41;5019497;28;20202;-70
2021/11/15 02:05:17;;;;;;;8.57;3.53;;;;;;;8.06;97.80;96679.06;5018096;28;20213;-70
2021/11/15 02:07:44;;;;;;;7.37;3.90;;;;;;;7.89;98.90;96673.81;5017738;28;20208;-70
2021/11/15 02:10:12;;;;;;;12.03;4.03;;;;;;;8.35;97.63;96674.44;5017192;28;20550;-70
2021/11/15 02:12:39;;;;;;;11.40;3.47;;;;;;;8.02;98.24;96677.72;5017339;28;20702;-70
2021/11/15 02:15:10;;;;;;;5.00;2.17;;;;;;;8.09;98.26;96680.56;5017388;28;20618;-70
2021/11/15 02:17:37;;;;;;;9.77;3.33;;;;;;;8.07;98.25;96674.63;5016559;28;20678;-70
2021/11/15 02:20:08;;;;;;;8.57;3.00;;;;;;;8.46;97.19;96666.28;5018006;28;20221;-69
2021/11/15 02:22:36;;;;;;;4.33;2.80;;;;;;;8.48;97.61;96668.75;5016663;28;20198;-70
2021/11/15 02:25:06;;;;;;;8.13;4.50;;;;;;;8.38;97.44;96670.69;5017185;28;20205;-70
2021/11/15 02:27:33;;;;;;;7.10;3.83;;;;;;;8.06;98.60;96670.38;5017690;28;20213;-70
2021/11/15 02:29:59;;;;;;;12.80;4.77;;;;;;;7.91;98.18;96674.50;5017119;28;20612;-70
2021/11/15 02:32:27;;;;;;;14.33;3.10;;;;;;;7.83;99.75;96666.56;5017587;28;20246;-70
2021/11/15 02:34:54;;;;;;;7.33;3.87;;;;;;;7.71;99.32;96664.31;5018135;28;20206;-70
2021/11/15 02:37:21;;;;;;;4.03;2.87;;;;;;;8.01;98.22;96664.75;5017555;28;20916;-70
2021/11/15 02:39:48;;;;;;;8.00;3.63;;;;;;;8.05;98.19;96653.78;5018611;28;20997;-70
2021/11/15 02:42:15;;;;;;;12.90;5.53;;;;;;;7.86;99.15;96661.00;5017399;28;20221;-70
2021/11/15 02:44:42;;;;;;;8.40;4.33;;;;;;;7.87;98.62;96662.66;5017436;28;20405;-70
2021/11/15 02:47:08;;;;;;;6.93;3.50;;;;;;;8.01;97.61;96654.28;5016885;28;20201;-70
2021/11/15 02:49:35;;;;;;;13.37;4.10;;;;;;;7.88;98.38;96659.06;5017298;28;21634;-70
2021/11/15 02:52:01;;;;;;;12.20;4.13;;;;;;;8.04;97.42;96664.44;5017409;28;20213;-70
2021/11/15 02:54:28;;;;;;;6.07;2.27;;;;;;;8.05;97.70;96663.47;5019885;28;20206;-70
2021/11/15 02:56:56;;;;;;;10.27;3.73;;;;;;;8.20;98.07;96659.38;5020442;28;20206;-70
2021/11/15 02:59:22;;;;;;;6.47;3.30;;;;;;;7.98;98.65;96667.66;5020579;28;20233;-70
2021/11/15 03:01:49;;;;;;;10.77;4.30;;;;;;;8.12;97.83;96662.72;5020909;28;20685;-70
2021/11/15 03:04:16;;;;;;;13.33;5.47;;;;;;;8.22;97.73;96655.63;5020706;28;20198;-70
2021/11/15 03:06:42;;;;;;;3.97;2.37;;;;;;;8.22;97.32;96657.41;5020085;28;20767;-70
2021/11/15 03:09:09;;;;;;;25.73;6.00;;;;;;;7.98;98.39;96654.56;5020911;28;20567;-70
2021/11/15 03:11:36;;;;;;;4.47;2.80;;;;;;;7.88;100.00;96654.66;5020828;28;20209;-70
2021/11/15 03:14:04;;;;;;;9.23;4.07;;;;;;;7.95;99.56;96650.44;5020725;28;20792;-70
2021/11/15 03:16:30;;;;;;;4.53;3.33;;;;;;;7.84;99.25;96647.25;5017202;28;20213;-70
2021/11/15 03:18:57;;;;;;;8.50;4.87;;;;;;;7.99;98.62;96648.34;5021134;28;20924;-70
2021/11/15 03:21:24;;;;;;;9.07;3.60;;;;;;;7.99;100.00;96648.34;5020647;28;20213;-70
2021/11/15 03:23:53;;;;;;;5.60;1.77;;;;;;;8.13;99.36;96642.53;5020879;28;20209;-70
2021/11/15 03:26:21;;;;;;;9.13;4.20;;;;;;;8.05;99.80;96645.13;5019911;28;20666;-70
2021/11/15 03:28:49;;;;;;;8.70;3.63;;;;;;;8.01;99.32;96633.28;5020595;28;20228;-70
2021/11/15 03:31:21;;;;;;;25.27;5.63;;;;;;;8.32;99.05;96642.41;5020675;28;20209;-70
2021/11/15 03:33:48;;;;;;;10.20;5.20;;;;;;;8.36;98.07;96638.47;5020522;28;20228;-70
2021/11/15 03:36:16;;;;;;;15.37;5.63;;;;;;;7.94;99.63;96642.72;5020027;28;20210;-70
2021/11/15 03:38:43;;;;;;;8.63;4.57;;;;;;;7.88;99.65;96644.16;5019999;28;20226;-70
2021/11/15 03:41:10;;;;;;;8.27;3.17;;;;;;;7.75;100.00;96653.38;5021244;28;20206;-70
2021/11/15 03:43:37;;;;;;;11.17;4.47;;;;;;;8.27;98.57;96652.53;5020595;28;20194;-70
2021/11/15 03:46:04;;;;;;;11.03;4.67;;;;;;;8.19;98.02;96649.84;5019692;28;20213;-70
2021/11/15 03:48:31;;;;;;;6.50;2.77;;;;;;;8.08;99.79;96655.28;5020971;28;20208;-70
2021/11/15 03:50:58;;;;;;;12.60;3.87;;;;;;;8.00;99.21;96650.81;5020331;28;20206;-70
2021/11/15 03:53:27;;;;;;;8.30;3.67;;;;;;;8.10;99.81;96653.34;5019455;28;20240;-70
2021/11/15 03:55:54;;;;;;;7.43;4.47;;;;;;;8.11;99.02;96647.94;5019461;28;21219;-69
2021/11/15 03:58:21;;;;;;;11.13;3.47;;;;;;;8.09;98.36;96642.00;5018992;28;20550;-70
2021/11/15 04:00:48;;;;;;;19.63;5.83;;;;;;;8.10;98.46;96646.28;5019285;28;21010;-70
2021/11/15 04:03:19;;;;;;;13.30;5.70;;;;;;;8.11;98.76;96652.38;5020219;28;20206;-70
2021/11/15 04:05:54;;;;;;;12.10;3.07;;;;;;;8.20;99.39;96648.88;5018123;28;20555;-70
2021/11/15 04:08:21;;;;;;;8.03;3.47;;;;;;;7.64;100.00;96644.91;5019465;28;20213;-70
2021/11/15 04:10:48;;;;;;;20.67;4.73;;;;;;;7.65;100.00;96642.13;5020529;28;20198;-70
2021/11/15 04:13:19;;;;;;;8.80;3.37;;;;;;;8.02;99.60;96640.19;5019883;28;20951;-70
2021/11/15 04:15:47;;;;;;;16.93;6.20;;;;;;;7.91;100.00;96645.66;5019264;28;20202;-70
2021/11/15 04:18:20;;;;;;;6.90;3.50;;;;;;;8.04;99.73;96648.69;5019738;28;20228;-70
2021/11/15 04:20:48;;;;;;;12.13;5.03;;;;;;;8.02;99.89;96648.06;5020072;28;20198;-70
2021/11/15 04:23:15;;;;;;;10.03;4.43;;;;;;;7.91;99.22;96649.09;5018859;28;20605;-70
2021/11/15 04:25:42;;;;;;;7.10;2.60;;;;;;;7.44;100.00;96652.06;5019396;28;20556;-70
2021/11/15 04:28:08;;;;;;;9.87;4.60;;;;;;;7.64;99.76;96650.16;5020122;28;20198;-70
2021/11/15 04:30:35;;;;;;;8.87;5.43;;;;;;;7.73;99.08;96650.06;5019560;28;20224;-70
2021/11/15 04:33:04;;;;;;;7.17;3.63;;;;;;;7.68;99.83;96641.81;5019200;28;20567;-70
2021/11/15 04:35:31;;;;;;;11.00;3.87;;;;;;;7.83;99.47;96657.84;5018959;28;20202;-70
2021/11/15 04:38:00;;;;;;;17.03;4.13;;;;;;;8.06;98.85;96647.56;5019666;28;20202;-70
2021/11/15 04:40:27;;;;;;;8.67;2.80;;;;;;;7.64;98.80;96653.59;5019311;28;20226;-70
2021/11/15 04:42:54;;;;;;;17.57;4.23;;;;;;;7.81;98.65;96651.94;5018742;28;20217;-70
2021/11/15 04:45:21;;;;;;;17.70;4.17;;;;;;;7.85;98.27;96651.47;5019084;28;20213;-70
2021/11/15 04:47:48;;;;;;;16.17;5.43;;;;;;;7.75;98.84;96653.38;5017704;28;20198;-70
2021/11/15 04:50:15;;;;;;;9.57;4.47;;;;;;;7.94;98.24;96650.59;5018920;28;20784;-70
2021/11/15 04:52:42;;;;;;;7.47;3.60;;;;;;;7.52;99.32;96649.56;5018962;28;20205;-70
2021/11/15 04:55:13;;;;;;;18.73;3.90;;;;;;;7.77;99.49;96651.41;5019401;28;20198;-70
2021/11/15 04:57:39;;;;;;;16.27;6.43;;;;;;;7.47;100.00;96654.41;5018950;28;20198;-70
2021/11/15 05:00:08;;;;;;;8.43;4.27;;;;;;;7.77;98.90;96650.59;5019115;28;20279;-70
2021/11/15 05:02:34;;;;;;;12.03;4.93;;;;;;;7.39;100.00;96662.16;5015892;28;20244;-70
2021/11/15 05:05:01;;;;;;;10.00;3.30;;;;;;;7.53;99.66;96661.66;5018050;28;20198;-70
2021/11/15 05:07:27;;;;;;;10.27;4.37;;;;;;;7.48;100.00;96650.78;5019115;28;20218;-70
2021/11/15 05:09:54;;;;;;;14.83;5.40;;;;;;;7.61;99.01;96651.28;5018312;28;20631;-70
2021/11/15 05:12:22;;;;;;;9.63;4.77;;;;;;;7.80;99.88;96653.72;5016141;28;20209;-70
2021/11/15 05:14:48;;;;;;;12.37;4.77;;;;;;;7.56;99.29;96653.53;5018734;28;20757;-70
2021/11/15 05:17:15;;;;;;;16.07;4.87;;;;;;;7.65;99.36;96651.78;5018166;28;20210;-70
2021/11/15 05:19:43;;;;;;;10.63;4.37;;;;;;;7.58;99.38;96659.44;5016088;28;20225;-70
2021/11/15 05:22:10;;;;;;;12.37;3.67;;;;;;;7.92;98.21;96652.56;5017937;28;20208;-70
2021/11/15 05:24:36;;;;;;;16.00;5.20;;;;;;;7.88;98.18;96654.66;5017755;28;20213;-70
2021/11/15 05:27:03;;;;;;;10.20;4.50;;;;;;;8.13;97.40;96653.03;5017105;28;20444;-70
2021/11/15 05:29:31;;;;;;;10.40;4.57;;;;;;;8.16;97.46;96644.88;5017663;28;20246;-69
2021/11/15 05:31:57;;;;;;;13.90;4.10;;;;;;;8.01;97.41;96641.97;5017299;28;20256;-70
2021/11/15 05:34:24;;;;;;;8.00;4.03;;;;;;;7.83;97.88;96658.69;5016849;28;20873;-70
2021/11/15 05:36:50;;;;;;;4.83;3.10;;;;;;;7.84;98.52;96652.47;5016479;28;20210;-70
2021/11/15 05:39:17;;;;;;;6.10;3.20;;;;;;;7.80;98.16;96652.91;5017329;28;21099;-70
2021/11/15 05:41:44;;;;;;;9.37;6.03;;;;;;;7.60;98.79;96654.03;5018274;28;20216;-70
2021/11/15 05:44:11;;;;;;;15.33;4.60;;;;;;;8.00;98.11;96655.22;5017091;28;20205;-70
2021/11/15 05:46:39;;;;;;;14.10;4.27;;;;;;;7.98;98.75;96652.78;5017413;28;20205;-70
2021/11/15 05:49:06;;;;;;;12.53;4.07;;;;;;;8.03;97.82;96657.53;5018274;28;20223;-70
2021/11/15 05:51:33;;;;;;;25.03;6.63;;;;;;;8.13;97.24;96671.41;5014966;28;20606;-70
2021/11/15 05:53:59;;;;;;;13.77;5.43;;;;;;;7.81;97.76;96675.56;5016465;28;20222;-70
2021/11/15 05:56:26;;;;;;;12.23;4.80;;;;;;;8.12;98.07;96665.34;5017735;28;20213;-70
2021/11/15 05:58:53;;;;;;;7.63;3.83;;;;;;;7.69;98.69;96669.72;5017909;28;20232;-70
2021/11/15 06:01:19;;;;;;;8.57;4.20;;;;;;;7.84;98.74;96670.00;5018051;28;20584;-70
2021/11/15 06:03:47;;;;;;;15.57;4.37;;;;;;;8.15;98.04;96672.13;5017949;28;20201;-70
2021/11/15 06:06:14;;;;;;;12.47;4.40;;;;;;;7.63;99.50;96670.28;5017604;28;20214;-70
2021/11/15 06:08:40;;;;;;;10.23;5.10;;;;;;;7.62;99.40;96663.41;5017223;28;20225;-70
2021/11/15 06:11:07;;;;;;;22.33;5.60;;;;;;;7.81;99.67;96663.25;5018387;28;21111;-70
2021/11/15 06:13:33;;;;;;;10.60;4.37;;;;;;;7.62;99.08;96673.06;5017640;28;20240;-70
2021/11/15 06:16:00;;;;;;;16.60;4.23;;;;;;;7.54;100.00;96676.44;5016336;28;20213;-70
2021/11/15 06:18:27;;;;;;;12.27;4.57;;;;;;;7.62;100.00;96680.94;5016806;28;20212;-70
2021/11/15 06:20:54;;;;;;;10.60;4.77;;;;;;;7.91;100.00;96664.81;5018798;28;20209;-70
2021/11/15 06:23:21;;;;;;;7.43;3.93;;;;;;;7.46;100.00;96678.97;5018438;28;20205;-72
2021/11/15 06:25:48;;;;;;;11.63;4.33;;;;;;;7.44;100.00;96675.66;5016902;28;20293;-72
2021/11/15 06:28:14;;;;;;;10.53;5.63;;;;;;;7.32;100.00;96668.97;5018430;28;20205;-72
2021/11/15 06:30:41;;;;;;;7.83;3.27;;;;;;;7.56;100.00;96673.66;5021858;28;20216;-72
2021/11/15 06:33:07;;;;;;;7.73;3.63;;;;;;;7.40;100.00;96663.81;5017809;28;20209;-72
2021/11/15 06:35:34;;;;;;;13.07;4.90;;;;;;;7.51;100.00;96666.25;5019706;28;20870;-72
2021/11/15 06:38:02;;;;;;;12.07;4.77;;;;;;;7.56;100.00;96665.78;5021241;28;20209;-72
2021/11/15 06:40:28;;;;;;;10.87;3.73;;;;;;;7.39;100.00;96670.03;5020797;28;21067;-72
2021/11/15 06:42:55;;;;;;;13.93;4.40;;;;;;;7.81;100.00;96684.25;5020112;28;20205;-72
2021/11/15 06:45:22;;;;;;;8.90;3.77;;;;;;;7.96;98.42;96685.38;5016922;28;20213;-72
2021/11/15 06:47:49;;;;;;;8.03;4.00;;;;;;;7.85;100.00;96687.41;5020270;28;20197;-72
2021/11/15 06:50:18;;;;;;;20.23;5.00;;;;;;;7.75;99.63;96695.34;5020836;28;20237;-72
2021/11/15 06:52:45;;;;;;;9.07;4.47;;;;;;;7.74;99.03;96698.09;5020771;28;20201;-72
2021/11/15 06:55:15;;;;;;;13.03;5.10;;;;;;;7.84;98.69;96696.25;5020433;28;20239;-72
2021/11/15 06:57:42;;;;;;;7.13;4.00;;;;;;;7.52;99.21;96704.63;5019769;28;20209;-72
2021/11/15 07:00:13;;;;;;;15.63;5.90;;;;;;;7.81;99.41;96692.13;5019267;28;20229;-72
2021/11/15 07:02:40;;;;;;;14.77;4.53;;;;;;;7.40;100.00;96684.78;5018185;28;20210;-72
2021/11/15 07:05:10;;;;;;;13.67;4.90;;;;;;;7.57;99.23;96689.22;5020714;28;20655;-72
2021/11/15 07:07:37;;;;;;;8.80;3.27;;;;;;;7.44;100.00;96691.38;5019392;28;20198;-72
2021/11/15 07:10:04;;;;;;;9.80;4.30;;;;;;;7.37;100.00;96690.34;5020727;28;20229;-72
2021/11/15 07:12:32;;;;;;;4.60;3.10;;;;;;;7.58;100.00;96688.28;5020204;28;20209;-72
2021/11/15 07:14:58;;;;;;;7.27;3.37;;;;;;;7.37;100.00;96689.53;5020364;28;21166;-72
2021/11/15 07:17:25;;;;;;;14.17;5.73;;;;;;;7.58;100.00;96684.84;5019615;28;20206;-72
2021/11/15 07:19:51;;;;;;;8.10;4.53;;;;;;;7.66;99.78;96696.25;5020365;28;20226;-72
2021/11/15 07:22:18;;;;;;;6.47;2.80;;;;;;;7.61;100.00;96690.63;5020330;28;20217;-72
2021/11/15 07:24:44;;;;;;;10.53;4.10;;;;;;;7.50;100.00;96696.06;5020231;28;20201;-72
2021/11/15 07:27:11;;;;;;;8.07;4.47;;;;;;;7.62;100.00;96700.09;5019855;28;20217;-72
2021/11/15 07:29:39;;;;;;;10.33;3.43;;;;;;;7.98;99.51;96691.28;5019088;28;20229;-72
2021/11/15 07:32:10;;;;;;;9.27;3.80;;;;;;;7.89;99.43;96689.56;5019560;28;20210;-72
2021/11/15 07:34:37;;;;;;;7.50;4.40;;;;;;;7.70;99.36;96699.38;5019252;28;20250;-72
2021/11/15 07:37:04;;;;;;;7.17;3.23;;;;;;;7.81;98.52;96699.97;5017873;28;20206;-72
2021/11/15 07:39:31;;;;;;;11.43;3.87;;;;;;;7.66;99.46;96705.88;5019029;28;20226;-72
2021/11/15 07:41:57;;;;;;;12.13;3.80;;;;;;;7.93;98.25;96714.56;5020736;28;20210;-72
2021/11/15 07:44:24;;;;;;;7.33;3.83;;;;;;;8.07;96.90;96711.38;5017024;28;20209;-72
2021/11/15 07:46:52;;;;;;;13.03;5.63;;;;;;;8.12;97.53;96709.97;5019296;28;20881;-72
2021/11/15 07:49:18;;;;;;;9.67;3.77;;;;;;;7.77;98.35;96724.88;5020583;28;20232;-72
2021/11/15 07:51:45;;;;;;;9.00;3.70;;;;;;;7.75;98.00;96721.59;5020145;28;21248;-72
2021/11/15 07:54:11;;;;;;;15.77;4.33;;;;;;;7.89;97.41;96724.53;5019298;28;20229;-72
2021/11/15 07:56:38;;;;;;;10.00;3.67;;;;;;;7.80;97.80;96724.56;5019252;28;20202;-72
2021/11/15 07:59:05;;;;;;;12.37;4.10;;;;;;;7.78;98.16;96728.31;5020236;28;20268;-72
2021/11/15 08:01:32;;;;;;;13.10;4.03;;;;;;;7.74;97.93;96730.44;5019959;28;20205;-72
2021/11/15 08:03:59;;;;;;;9.37;4.17;;;;;;;7.75;99.13;96726.00;5020451;28;20201;-72
2021/11/15 08:06:26;;;;;;;7.00;2.67;;;;;;;7.70;99.80;96721.19;5020291;28;20216;-72
2021/11/15 08:08:53;;;;;;;10.30;3.67;;;;;;;7.79;99.08;96722.94;5020348;28;20225;-72
2021/11/15 08:11:19;;;;;;;11.00;3.07;;;;;;;7.75;98.68;96721.59;5020344;28;21370;-72
2021/11/15 08:13:46;;;;;;;7.67;3.40;;;;;;;7.83;98.46;96723.44;5021321;28;20202;-72
2021/11/15 08:16:13;;;;;;;6.10;3.73;;;;;;;7.67;98.79;96729.34;5018994;28;20209;-72
2021/11/15 08:18:40;;;;;;;11.03;4.33;;;;;;;7.70;98.73;96722.97;5017052;28;20221;-71
2021/11/15 08:21:13;;;;;;;9.80;4.40;;;;;;;8.11;98.48;96728.50;5017247;28;20206;-71
2021/11/15 08:23:40;;;;;;;9.17;3.27;;;;;;;8.18;97.25;96722.50;5018516;28;20209;-72
2021/11/15 08:26:29;;;;;;;12.53;4.57;;;;;;;8.39;96.43;96723.03;5017416;28;20240;-72
2021/11/15 08:29:01;;;;;;;9.60;3.43;;;;;;;8.39;96.88;96717.78;5018201;28;20225;-72
2021/11/15 08:31:28;;;;;;;5.93;3.50;;;;;;;8.04;98.20;96722.19;5018513;28;20209;-72
2021/11/15 08:33:55;;;;;;;5.70;4.00;;;;;;;8.25;97.67;96717.47;5011991;28;20217;-72
2021/11/15 08:36:24;;;;;;;10.93;4.33;;;;;;;8.33;97.47;96728.06;5017104;28;21374;-73
2021/11/15 08:38:54;;;;;;;7.73;3.27;;;;;;;8.42;97.75;96732.41;5017965;28;20232;-72
2021/11/15 08:41:23;;;;;;;14.80;4.73;;;;;;;8.42;97.13;96727.16;5021347;28;20214;-72
2021/11/15 08:43:52;;;;;;;19.53;6.07;;;;;;;8.16;98.08;96734.13;5020687;28;20201;-72
2021/11/15 08:46:19;;;;;;;10.30;5.17;;;;;;;7.87;98.24;96731.69;5020797;28;20209;-72
2021/11/15 08:48:47;;;;;;;23.60;6.50;;;;;;;8.20;97.62;96732.88;5021077;28;20225;-72
2021/11/15 08:51:15;;;;;;;10.70;4.40;;;;;;;8.31;97.73;96730.00;5019907;28;20210;-72
2021/11/15 08:53:44;;;;;;;12.97;4.50;;;;;;;8.29;98.22;96731.97;5020921;28;20205;-72
2021/11/15 08:56:11;;;;;;;12.40;5.57;;;;;;;8.26;97.65;96734.88;5020210;28;21275;-72
2021/11/15 08:58:38;;;;;;;8.83;6.70;;;;;;;8.30;97.85;96733.59;5020275;28;20233;-72
2021/11/15 09:01:06;;;;;;;9.53;3.40;;;;;;;8.08;98.00;96732.25;5020223;28;20217;-72
2021/11/15 09:03:35;;;;;;;14.77;5.87;;;;;;;8.12;97.52;96738.84;5015548;28;20202;-71
2021/11/15 09:06:05;;;;;;;10.93;4.97;;;;;;;8.35;97.47;96731.34;5015816;28;20324;-72
2021/11/15 09:08:32;;;;;;;20.27;4.83;;;;;;;7.97;97.82;96739.53;5017099;28;20577;-71
2021/11/15 09:11:00;;;;;;;20.23;5.87;;;;;;;8.29;98.04;96743.28;5017656;28;20205;-70
2021/11/15 09:13:27;;;;;;;18.40;5.40;;;;;;;7.91;97.57;96748.78;5017571;28;20216;-71
2021/11/15 09:15:53;;;;;;;17.63;5.13;;;;;;;7.90;98.13;96744.53;5015388;28;20225;-71
2021/11/15 09:18:20;;;;;;;11.97;4.63;;;;;;;7.89;98.36;96744.66;5015386;28;20686;-71
2021/11/15 09:20:47;;;;;;;17.60;5.67;;;;;;;8.03;98.71;96747.63;5016299;28;20967;-71
2021/11/15 09:23:14;;;;;;;19.67;3.83;;;;;;;8.25;97.29;96739.31;5015256;28;20212;-72
2021/11/15 09:25:41;;;;;;;5.43;3.13;;;;;;;7.91;97.36;96750.59;5016169;28;20691;-71
2021/11/15 09:28:09;;;;;;;20.47;3.67;;;;;;;8.27;96.81;96749.66;5017295;28;20198;-71
2021/11/15 09:30:37;;;;;;;7.83;4.00;;;;;;;8.09;96.28;96754.06;5016920;28;20221;-71
2021/11/15 09:33:04;;;;;;;8.63;4.90;;;;;;;8.10;96.24;96742.59;5020483;28;20210;-72
2021/11/15 09:35:31;;;;;;;11.10;3.33;;;;;;;7.72;97.84;96748.09;5010432;28;20791;-72
2021/11/15 09:37:58;;;;;;;12.40;4.63;;;;;;;7.90;97.66;96746.31;5019792;28;20206;-72
2021/11/15 09:40:24;;;;;;;12.43;4.77;;;;;;;8.09;98.05;96752.25;5018644;28;20232;-71
2021/11/15 09:42:55;;;;;;;13.23;4.63;;;;;;;8.17;96.25;96748.91;5017175;28;20212;-71
2021/11/15 09:45:22;;;;;;;9.60;4.13;;;;;;;8.45;96.02;96738.16;5014662;28;20206;-71
2021/11/15 09:47:49;;;;;;;10.23;4.13;;;;;;;8.12;96.77;96738.00;5016552;28;20202;-71
2021/11/15 09:50:18;;;;;;;7.73;4.03;;;;;;;8.32;97.64;96742.16;5017326;28;20221;-71
2021/11/15 09:52:45;;;;;;;7.30;3.53;;;;;;;8.32;97.13;96739.53;5016121;28;20198;-71
2021/11/15 09:55:12;;;;;;;11.93;3.30;;;;;;;8.23;97.20;96736.00;5016331;28;20757;-69
2021/11/15 09:57:41;;;;;;;8.37;4.77;;;;;;;8.37;97.57;96735.47;5015349;28;20212;-70
2021/11/15 10:00:11;;;;;;;17.87;5.87;;;;;;;8.68;95.82;96729.66;5015303;28;20221;-71
2021/11/15 10:02:38;;;;;;;10.23;4.53;;;;;;;8.22;97.99;96741.41;5014841;28;20206;-71
2021/11/15 10:05:08;;;;;;;9.97;4.67;;;;;;;8.46;97.22;96733.75;5015790;28;20213;-71
2021/11/15 10:07:41;;;;;;;11.20;4.13;;;;;;;8.32;97.85;96729.84;5014690;28;20320;-71
2021/11/15 10:10:43;;;;;;;11.07;5.80;;;;;;;9.00;96.27;96735.13;5015572;28;20753;-74
2021/11/15 10:13:16;;;;;;;8.80;3.13;;;;;;;8.25;98.21;96733.22;5016439;28;20201;-72
2021/11/15 10:16:02;;;;;;;8.50;5.47;;;;;;;8.62;97.28;96724.19;5015634;28;20261;-72
2021/11/15 10:18:47;;;;;;;15.80;5.60;;;;;;;8.68;97.07;96723.56;5014771;28;20299;-73
2021/11/15 10:21:18;;;;;;;14.10;5.47;;;;;;;8.19;97.58;96732.03;5016098;28;20205;-72
2021/11/15 10:23:49;;;;;;;11.90;5.63;;;;;;;8.18;97.58;96734.81;5016792;28;20216;-71
2021/11/15 10:26:22;;;;;;;12.27;5.50;;;;;;;8.33;97.82;96722.81;5015379;28;20202;-72
2021/11/15 10:28:53;;;;;;;9.13;3.70;;;;;;;8.10;99.09;96722.41;5015537;28;20222;-73
2021/11/15 10:31:33;;;;;;;11.33;4.27;;;;;;;8.15;99.05;96724.63;5015994;28;20210;-73
2021/11/15 10:34:02;;;;;;;12.90;4.43;;;;;;;8.07;99.28;96711.38;5015066;28;20280;-72
2021/11/15 10:36:58;;;;;;;9.63;3.53;;;;;;;8.11;99.42;96715.38;5015135;28;20221;-74
2021/11/15 10:39:30;;;;;;;14.10;4.63;;;;;;;8.33;99.48;96704.44;5015616;28;20233;-74
2021/11/15 10:41:59;;;;;;;12.40;4.53;;;;;;;8.08;99.33;96713.03;5016119;28;20220;-74
2021/11/15 10:44:26;;;;;;;10.10;3.90;;;;;;;8.11;98.06;96712.75;5012351;28;20268;-74
2021/11/15 10:46:54;;;;;;;9.20;4.47;;;;;;;8.18;99.61;96713.81;5014301;28;20216;-73
2021/11/15 10:49:24;;;;;;;13.87;3.73;;;;;;;8.15;99.02;96714.13;5015979;28;20227;-73
2021/11/15 10:51:53;;;;;;;10.77;5.43;;;;;;;8.23;98.38;96707.13;5015733;28;20264;-72
2021/11/15 10:54:44;;;;;;;22.63;4.43;;;;;;;8.48;97.49;96699.31;5015810;28;20206;-73
2021/11/15 10:57:24;;;;;;;17.43;6.20;;;;;;;8.30;99.43;96702.94;5015984;28;20210;-73
2021/11/15 11:00:11;;;;;;;17.83;4.70;;;;;;;8.40;97.67;96687.09;5015801;28;20279;-73
2021/11/15 11:02:40;;;;;;;14.20;3.97;;;;;;;8.49;97.78;96689.63;5013032;28;20210;-73
2021/11/15 11:05:10;;;;;;;11.80;6.00;;;;;;;8.30;98.67;96691.59;5014825;28;20256;-73
2021/11/15 11:07:38;;;;;;;13.40;5.57;;;;;;;7.95;98.43;96702.09;5013244;28;20213;-72
2021/11/15 11:10:06;;;;;;;12.80;6.20;;;;;;;8.17;97.87;96691.16;5011984;28;20221;-73
2021/11/15 11:12:35;;;;;;;16.20;5.77;;;;;;;8.24;97.77;96689.59;5015061;28;20225;-73
2021/11/15 11:15:27;;;;;;;15.87;4.67;;;;;;;8.21;97.96;96682.84;5017148;28;20226;-73
2021/11/15 11:18:08;;;;;;;15.90;6.50;;;;;;;7.87;99.92;96684.47;5019196;28;20201;-73
2021/11/15 11:26:40;;;;;;;11.33;4.20;;;;;;;8.23;98.20;96691.38;5009788;28;20202;-73
2021/11/15 11:29:10;;;;;;;9.50;4.20;;;;;;;8.34;98.42;96678.03;5018463;28;20226;-73
2021/11/15 11:31:39;;;;;;;16.07;6.03;;;;;;;8.43;98.11;96678.94;5019912;28;20217;-73
2021/11/15 11:34:06;;;;;;;20.50;5.67;;;;;;;8.00;99.64;96684.09;5018783;28;20213;-74
2021/11/15 11:36:34;;;;;;;8.13;3.03;;;;;;;7.88;100.00;96677.44;5016973;28;20229;-73
2021/11/15 11:39:02;;;;;;;16.63;5.93;;;;;;;8.01;98.97;96685.75;5020114;28;20807;-74
2021/11/15 11:41:29;;;;;;;17.63;5.87;;;;;;;7.95;98.75;96681.91;5021560;28;20229;-73
2021/11/15 11:43:55;;;;;;;17.43;3.93;;;;;;;7.74;99.06;96683.22;5019371;28;20209;-73
2021/11/15 11:46:24;;;;;;;16.90;4.67;;;;;;;8.22;98.32;96678.41;5017257;28;20209;-74